createdAt,value
2022-08-16T00:00:04.451Z,21.27
2022-08-16T00:00:57.276Z,21.30
2022-08-16T00:01:56.364Z,21.34
2022-08-16T00:02:56.257Z,21.34
2022-08-16T00:03:56.283Z,21.34
2022-08-16T00:04:59.634Z,21.32
2022-08-16T00:05:57.511Z,21.32
2022-08-16T00:06:56.229Z,21.32
2022-08-16T00:07:57.004Z,21.30
2022-08-16T00:08:56.209Z,21.32
2022-08-16T00:09:56.186Z,21.35
2022-08-16T00:10:56.167Z,21.35
2022-08-16T00:11:56.182Z,21.36
2022-08-16T00:12:56.162Z,21.35
2022-08-16T00:13:56.130Z,21.35
2022-08-16T00:14:56.827Z,21.35
2022-08-16T00:15:56.110Z,21.38
2022-08-16T00:17:05.423Z,21.39
2022-08-16T00:17:57.512Z,21.36
2022-08-16T00:18:56.071Z,21.38
2022-08-16T00:19:56.074Z,21.38
2022-08-16T00:20:56.052Z,21.38
2022-08-16T00:22:01.675Z,21.39
2022-08-16T00:22:57.054Z,21.38
2022-08-16T00:23:56.024Z,21.38
2022-08-16T00:24:56.012Z,21.38
2022-08-16T00:26:36.161Z,21.39
2022-08-16T00:26:56.984Z,21.36
2022-08-16T00:27:55.975Z,21.36
2022-08-16T00:28:55.993Z,21.36
2022-08-16T00:30:09.009Z,21.34
2022-08-16T00:30:59.269Z,21.36
2022-08-16T00:32:01.372Z,21.35
2022-08-16T00:32:57.076Z,21.34
2022-08-16T00:33:55.915Z,21.30
2022-08-16T00:34:55.915Z,21.30
2022-08-16T00:35:55.893Z,21.29
2022-08-16T00:36:56.046Z,21.27
2022-08-16T00:37:58.970Z,21.21
2022-08-16T00:38:56.182Z,21.20
2022-08-16T00:39:56.917Z,21.19
2022-08-16T00:40:55.857Z,21.19
2022-08-16T00:41:55.827Z,21.19
2022-08-16T00:42:55.807Z,21.19
2022-08-16T00:43:55.807Z,21.16
2022-08-16T00:44:55.795Z,21.14
2022-08-16T00:46:00.674Z,21.13
2022-08-16T00:47:02.467Z,21.09
2022-08-16T00:47:56.757Z,21.05
2022-08-16T00:48:55.747Z,21.04
2022-08-16T00:49:56.725Z,20.99
2022-08-16T00:50:55.728Z,20.98
2022-08-16T00:51:55.769Z,20.98
2022-08-16T00:52:55.940Z,21.01
2022-08-16T00:53:55.697Z,21.01
2022-08-16T00:54:55.680Z,20.99
2022-08-16T00:55:55.669Z,21.04
2022-08-16T00:56:58.301Z,21.01
2022-08-16T00:58:00.001Z,21.01
2022-08-16T00:58:56.630Z,21.05
2022-08-16T00:59:59.469Z,21.06
2022-08-16T01:00:55.645Z,21.11
2022-08-16T01:01:55.602Z,21.14
2022-08-16T01:02:55.613Z,21.14
2022-08-16T01:03:55.582Z,21.14
2022-08-16T01:05:11.221Z,21.14
2022-08-16T01:05:56.562Z,21.14
2022-08-16T01:07:01.820Z,21.16
2022-08-16T01:07:56.533Z,21.16
2022-08-16T01:08:55.530Z,21.20
2022-08-16T01:09:55.522Z,21.19
2022-08-16T01:10:55.506Z,21.20
2022-08-16T01:11:55.533Z,21.23
2022-08-16T01:12:55.502Z,21.24
2022-08-16T01:13:55.504Z,21.26
2022-08-16T01:14:55.454Z,21.29
2022-08-16T01:15:55.446Z,21.29
2022-08-16T01:16:55.434Z,21.34
2022-08-16T01:17:55.916Z,21.32
2022-08-16T01:18:55.415Z,21.34
2022-08-16T01:19:56.967Z,21.32
2022-08-16T01:20:55.386Z,21.34
2022-08-16T01:21:55.385Z,21.32
2022-08-16T01:22:55.836Z,21.30
2022-08-16T01:24:00.968Z,21.30
2022-08-16T01:24:56.348Z,21.29
2022-08-16T01:25:59.740Z,21.30
2022-08-16T01:26:55.326Z,21.27
2022-08-16T01:27:56.337Z,21.27
2022-08-16T01:28:55.305Z,21.24
2022-08-16T01:29:58.474Z,21.24
2022-08-16T01:30:55.309Z,21.20
2022-08-16T01:31:55.278Z,21.19
2022-08-16T01:33:02.674Z,21.19
2022-08-16T01:33:56.248Z,21.16
2022-08-16T01:34:56.984Z,21.16
2022-08-16T01:35:56.365Z,21.14
2022-08-16T01:36:58.294Z,21.13
2022-08-16T01:37:55.217Z,21.14
2022-08-16T01:38:57.111Z,21.16
2022-08-16T01:39:55.209Z,21.14
2022-08-16T01:40:55.174Z,21.16
2022-08-16T01:41:55.160Z,21.16
2022-08-16T01:42:55.471Z,21.17
2022-08-16T01:43:55.140Z,21.17
2022-08-16T01:44:55.130Z,21.14
2022-08-16T01:45:57.652Z,21.14
2022-08-16T01:46:55.108Z,21.13
2022-08-16T01:47:55.091Z,21.16
2022-08-16T01:48:55.105Z,21.16
2022-08-16T01:51:05.112Z,21.16
2022-08-16T01:51:08.833Z,21.17
2022-08-16T01:51:56.052Z,21.16
2022-08-16T01:52:55.034Z,21.16
2022-08-16T01:53:55.857Z,21.13
2022-08-16T01:54:55.012Z,21.13
2022-08-16T01:55:55.013Z,21.16
2022-08-16T01:56:55.013Z,21.16
2022-08-16T01:57:56.228Z,21.17
2022-08-16T01:58:55.194Z,21.14
2022-08-16T01:59:55.044Z,21.13
2022-08-16T02:00:55.083Z,21.11
2022-08-16T02:01:59.896Z,21.11
2022-08-16T02:02:55.925Z,21.09
2022-08-16T02:03:58.172Z,21.08
2022-08-16T02:04:55.072Z,21.09
2022-08-16T02:05:54.897Z,21.09
2022-08-16T02:06:54.906Z,21.08
2022-08-16T02:07:54.875Z,21.09
2022-08-16T02:08:54.856Z,21.09
2022-08-16T02:09:58.873Z,21.09
2022-08-16T02:10:54.837Z,21.08
2022-08-16T02:11:54.846Z,21.08
2022-08-16T02:12:55.933Z,21.08
2022-08-16T02:13:55.807Z,21.09
2022-08-16T02:14:54.790Z,21.09
2022-08-16T02:15:54.786Z,21.05
2022-08-16T02:16:54.771Z,21.06
2022-08-16T02:17:54.822Z,21.06
2022-08-16T02:18:54.748Z,21.04
2022-08-16T02:19:59.076Z,20.99
2022-08-16T02:20:55.728Z,20.98
2022-08-16T02:22:09.003Z,20.95
2022-08-16T02:22:55.731Z,20.90
2022-08-16T02:23:55.714Z,20.89
2022-08-16T02:24:54.689Z,20.86
2022-08-16T02:25:54.868Z,20.84
2022-08-16T02:26:54.663Z,20.83
2022-08-16T02:27:54.652Z,20.81
2022-08-16T02:28:54.660Z,20.81
2022-08-16T02:30:05.061Z,20.80
2022-08-16T02:30:55.623Z,20.81
2022-08-16T02:32:03.949Z,20.83
2022-08-16T02:32:55.591Z,20.83
2022-08-16T02:33:54.622Z,20.84
2022-08-16T02:34:56.478Z,20.86
2022-08-16T02:35:58.116Z,20.83
2022-08-16T02:36:54.553Z,20.87
2022-08-16T02:37:56.151Z,20.91
2022-08-16T02:38:54.553Z,20.95
2022-08-16T02:39:54.564Z,20.93
2022-08-16T02:40:54.902Z,20.91
2022-08-16T02:41:54.519Z,20.90
2022-08-16T02:42:54.484Z,20.90
2022-08-16T02:43:54.485Z,20.90
2022-08-16T02:44:54.494Z,20.90
2022-08-16T02:45:54.461Z,20.93
2022-08-16T02:46:54.445Z,20.95
2022-08-16T02:48:01.258Z,20.96
2022-08-16T02:48:55.446Z,20.96
2022-08-16T02:50:52.133Z,20.98
2022-08-16T02:51:10.380Z,20.96
2022-08-16T02:51:55.377Z,20.96
2022-08-16T02:52:54.377Z,20.96
2022-08-16T02:53:54.367Z,20.93
2022-08-16T02:54:55.482Z,20.95
2022-08-16T02:55:54.336Z,20.95
2022-08-16T02:56:54.328Z,20.96
2022-08-16T02:57:54.767Z,20.96
2022-08-16T02:58:54.308Z,20.98
2022-08-16T02:59:54.317Z,21.01
2022-08-16T03:00:55.966Z,21.01
2022-08-16T03:01:55.378Z,21.02
2022-08-16T03:02:56.198Z,21.02
2022-08-16T03:04:39.566Z,21.01
2022-08-16T03:04:55.240Z,20.99
2022-08-16T03:05:54.229Z,20.99
2022-08-16T03:06:56.552Z,20.99
2022-08-16T03:07:54.229Z,20.98
2022-08-16T03:08:54.201Z,20.96
2022-08-16T03:09:54.210Z,20.95
2022-08-16T03:10:54.178Z,20.93
2022-08-16T03:11:55.164Z,20.90
2022-08-16T03:12:55.933Z,20.87
2022-08-16T03:13:56.521Z,20.83
2022-08-16T03:14:54.184Z,20.83
2022-08-16T03:15:54.121Z,20.79
2022-08-16T03:16:59.746Z,20.76
2022-08-16T03:17:55.092Z,20.76
2022-08-16T03:18:54.090Z,20.72
2022-08-16T03:19:59.966Z,20.72
2022-08-16T03:20:55.773Z,20.69
2022-08-16T03:21:54.053Z,20.66
2022-08-16T03:22:54.045Z,20.66
2022-08-16T03:23:54.043Z,20.64
2022-08-16T03:24:54.024Z,20.64
2022-08-16T03:25:54.005Z,20.64
2022-08-16T03:26:54.019Z,20.64
2022-08-16T03:27:53.984Z,20.65
2022-08-16T03:28:53.977Z,20.68
2022-08-16T03:29:54.781Z,20.69
2022-08-16T03:30:53.975Z,20.69
2022-08-16T03:31:53.946Z,20.69
2022-08-16T03:32:53.962Z,20.71
2022-08-16T03:33:53.934Z,20.72
2022-08-16T03:34:53.909Z,20.74
2022-08-16T03:35:57.001Z,20.74
2022-08-16T03:36:53.888Z,20.74
2022-08-16T03:38:02.739Z,20.76
2022-08-16T03:38:54.871Z,20.77
2022-08-16T03:39:56.442Z,20.79
2022-08-16T03:40:54.870Z,20.79
2022-08-16T03:41:59.555Z,20.74
2022-08-16T03:43:00.504Z,20.72
2022-08-16T03:43:54.814Z,20.72
2022-08-16T03:45:03.546Z,20.72
2022-08-16T03:45:54.810Z,20.68
2022-08-16T03:46:53.779Z,20.65
2022-08-16T03:47:58.616Z,20.65
2022-08-16T03:48:54.759Z,20.62
2022-08-16T03:49:53.752Z,20.62
2022-08-16T03:51:00.145Z,20.58
2022-08-16T03:51:54.746Z,20.54
2022-08-16T03:52:59.638Z,20.56
2022-08-16T03:54:00.666Z,20.50
2022-08-16T03:54:58.246Z,20.43
2022-08-16T03:55:54.671Z,20.42
2022-08-16T03:56:56.906Z,20.38
2022-08-16T03:57:53.652Z,20.38
2022-08-16T03:58:53.662Z,20.39
2022-08-16T03:59:53.642Z,20.38
2022-08-16T04:00:58.994Z,20.39
2022-08-16T04:01:54.634Z,20.41
2022-08-16T04:02:53.593Z,20.42
2022-08-16T04:03:55.195Z,20.42
2022-08-16T04:04:53.576Z,20.41
2022-08-16T04:05:54.078Z,20.42
2022-08-16T04:06:53.556Z,20.41
2022-08-16T04:07:53.566Z,20.41
2022-08-16T04:08:53.533Z,20.39
2022-08-16T04:09:53.531Z,20.38
2022-08-16T04:10:53.523Z,20.35
2022-08-16T04:11:53.506Z,20.33
2022-08-16T04:12:59.463Z,20.33
2022-08-16T04:14:00.959Z,20.34
2022-08-16T04:14:54.490Z,20.33
2022-08-16T04:15:53.459Z,20.28
2022-08-16T04:16:53.443Z,20.28
2022-08-16T04:17:53.440Z,20.28
2022-08-16T04:18:53.422Z,20.27
2022-08-16T04:19:54.935Z,20.28
2022-08-16T04:20:53.406Z,20.33
2022-08-16T04:21:53.416Z,20.28
2022-08-16T04:22:53.396Z,20.25
2022-08-16T04:23:54.853Z,20.25
2022-08-16T04:25:01.133Z,20.25
2022-08-16T04:25:53.351Z,20.27
2022-08-16T04:26:53.335Z,20.27
2022-08-16T04:27:55.640Z,20.30
2022-08-16T04:29:14.630Z,20.28
2022-08-16T04:29:54.305Z,20.30
2022-08-16T04:30:54.298Z,20.28
2022-08-16T04:31:56.901Z,20.27
2022-08-16T04:32:53.286Z,20.24
2022-08-16T04:33:53.269Z,20.23
2022-08-16T04:34:53.250Z,20.18
2022-08-16T04:35:53.234Z,20.15
2022-08-16T04:36:53.224Z,20.16
2022-08-16T04:37:53.805Z,20.16
2022-08-16T04:38:53.195Z,20.16
2022-08-16T04:39:57.075Z,20.15
2022-08-16T04:40:54.341Z,20.18
2022-08-16T04:41:56.795Z,20.18
2022-08-16T04:42:53.156Z,20.20
2022-08-16T04:43:53.174Z,20.20
2022-08-16T04:44:55.337Z,20.20
2022-08-16T04:46:00.148Z,20.23
2022-08-16T04:47:01.115Z,20.21
2022-08-16T04:47:56.143Z,20.21
2022-08-16T04:48:53.112Z,20.24
2022-08-16T04:49:53.077Z,20.23
2022-08-16T04:50:53.068Z,20.23
2022-08-16T04:51:53.804Z,20.21
2022-08-16T04:52:53.056Z,20.18
2022-08-16T04:53:53.057Z,20.18
2022-08-16T04:54:53.028Z,20.16
2022-08-16T04:55:53.594Z,20.15
2022-08-16T04:56:52.997Z,20.15
2022-08-16T04:57:53.801Z,20.13
2022-08-16T04:58:52.997Z,20.15
2022-08-16T04:59:54.233Z,20.16
2022-08-16T05:00:52.957Z,20.13
2022-08-16T05:01:58.121Z,20.15
2022-08-16T05:02:56.219Z,20.15
2022-08-16T05:04:00.876Z,20.15
2022-08-16T05:04:53.930Z,20.15
2022-08-16T05:05:59.229Z,20.13
2022-08-16T05:06:53.882Z,20.10
2022-08-16T05:07:59.544Z,20.10
2022-08-16T05:08:56.427Z,20.13
2022-08-16T05:09:52.882Z,20.13
2022-08-16T05:10:52.842Z,20.13
2022-08-16T05:11:57.384Z,20.12
2022-08-16T05:12:52.823Z,20.08
2022-08-16T05:13:52.813Z,20.06
2022-08-16T05:15:01.804Z,20.02
2022-08-16T05:15:53.812Z,20.00
2022-08-16T05:16:52.794Z,20.02
2022-08-16T05:17:58.692Z,20.02
2022-08-16T05:18:53.753Z,20.03
2022-08-16T05:19:57.982Z,20.05
2022-08-16T05:21:01.856Z,20.05
2022-08-16T05:21:53.725Z,20.06
2022-08-16T05:22:53.075Z,20.09
2022-08-16T05:23:58.690Z,20.10
2022-08-16T05:24:55.319Z,20.15
2022-08-16T05:25:52.705Z,20.16
2022-08-16T05:26:52.663Z,20.18
2022-08-16T05:27:52.664Z,20.18
2022-08-16T05:28:55.513Z,20.21
2022-08-16T05:29:59.972Z,20.24
2022-08-16T05:30:53.627Z,20.27
2022-08-16T05:31:53.275Z,20.30
2022-08-16T05:32:52.882Z,20.33
2022-08-16T05:33:53.644Z,20.31
2022-08-16T05:34:52.606Z,20.35
2022-08-16T05:35:54.730Z,20.38
2022-08-16T05:36:52.556Z,20.42
2022-08-16T05:37:52.545Z,20.49
2022-08-16T05:38:52.528Z,20.53
2022-08-16T05:39:55.359Z,20.58
2022-08-16T05:40:57.229Z,20.62
2022-08-16T05:41:53.500Z,20.68
2022-08-16T05:42:52.628Z,20.69
2022-08-16T05:43:52.478Z,20.74
2022-08-16T05:44:53.499Z,20.79
2022-08-16T05:45:52.459Z,20.83
2022-08-16T05:46:52.450Z,20.89
2022-08-16T05:47:59.502Z,20.91
2022-08-16T05:48:54.917Z,20.98
2022-08-16T05:49:52.411Z,21.02
2022-08-16T05:50:53.197Z,21.05
2022-08-16T05:51:52.390Z,21.06
2022-08-16T05:52:52.401Z,21.11
2022-08-16T05:53:52.372Z,21.17
2022-08-16T05:55:01.536Z,21.19
2022-08-16T05:55:53.371Z,21.21
2022-08-16T05:56:52.332Z,21.24
2022-08-16T05:57:52.414Z,21.23
2022-08-16T05:58:52.310Z,21.21
2022-08-16T06:00:00.011Z,21.21
2022-08-16T06:00:53.315Z,21.23
2022-08-16T06:01:52.357Z,21.24
2022-08-16T06:02:52.266Z,21.26
2022-08-16T06:03:52.253Z,21.27
2022-08-16T06:04:52.246Z,21.27
2022-08-16T06:05:52.255Z,21.29
2022-08-16T06:06:56.215Z,21.23
2022-08-16T06:07:58.431Z,21.24
2022-08-16T06:08:53.193Z,21.23
2022-08-16T06:09:52.602Z,21.24
2022-08-16T06:11:02.816Z,21.23
2022-08-16T06:11:53.164Z,21.23
2022-08-16T06:12:55.648Z,21.21
2022-08-16T06:13:52.147Z,21.21
2022-08-16T06:14:52.135Z,21.21
2022-08-16T06:15:52.147Z,21.21
2022-08-16T06:16:52.104Z,21.21
2022-08-16T06:17:52.128Z,21.20
2022-08-16T06:18:52.115Z,21.21
2022-08-16T06:19:52.088Z,21.23
2022-08-16T06:20:55.800Z,21.23
2022-08-16T06:21:54.826Z,21.21
2022-08-16T06:22:57.637Z,21.23
2022-08-16T06:23:53.985Z,21.23
2022-08-16T06:24:53.642Z,21.21
2022-08-16T06:25:52.196Z,21.21
2022-08-16T06:26:58.043Z,21.21
2022-08-16T06:27:57.085Z,21.21
2022-08-16T06:28:52.494Z,21.26
2022-08-16T06:29:51.970Z,21.32
2022-08-16T06:30:51.959Z,21.32
2022-08-16T06:31:51.949Z,21.32
2022-08-16T06:32:52.255Z,21.35
2022-08-16T06:33:51.948Z,21.35
2022-08-16T06:34:57.499Z,21.34
2022-08-16T06:35:55.335Z,21.35
2022-08-16T06:36:59.274Z,21.35
2022-08-16T06:37:52.879Z,21.35
2022-08-16T06:38:56.109Z,21.38
2022-08-16T06:39:52.893Z,21.38
2022-08-16T06:40:51.841Z,21.42
2022-08-16T06:41:51.848Z,21.50
2022-08-16T06:42:56.820Z,21.57
2022-08-16T06:43:52.841Z,21.60
2022-08-16T06:44:51.801Z,21.64
2022-08-16T06:45:51.801Z,21.74
2022-08-16T06:46:51.777Z,21.76
2022-08-16T06:47:53.450Z,21.82
2022-08-16T06:48:51.898Z,21.88
2022-08-16T06:49:52.931Z,21.95
2022-08-16T06:50:51.734Z,21.99
2022-08-16T06:51:52.630Z,22.06
2022-08-16T06:53:00.077Z,22.09
2022-08-16T06:53:52.896Z,22.13
2022-08-16T06:54:51.714Z,22.19
2022-08-16T06:55:53.589Z,22.22
2022-08-16T06:56:52.502Z,22.23
2022-08-16T06:57:51.657Z,22.23
2022-08-16T06:58:51.647Z,22.29
2022-08-16T06:59:58.362Z,22.32
2022-08-16T07:00:52.688Z,22.37
2022-08-16T07:01:54.957Z,22.41
2022-08-16T07:02:52.220Z,22.46
2022-08-16T07:03:55.846Z,22.46
2022-08-16T07:04:52.682Z,22.49
2022-08-16T07:05:51.566Z,22.49
2022-08-16T07:06:51.557Z,22.53
2022-08-16T07:07:51.548Z,22.53
2022-08-16T07:08:51.537Z,22.57
2022-08-16T07:09:51.549Z,22.59
2022-08-16T07:10:51.516Z,22.64
2022-08-16T07:11:52.304Z,22.65
2022-08-16T07:13:04.162Z,22.67
2022-08-16T07:14:03.999Z,22.71
2022-08-16T07:14:52.490Z,22.75
2022-08-16T07:15:51.481Z,22.77
2022-08-16T07:16:51.452Z,22.78
2022-08-16T07:17:51.442Z,22.83
2022-08-16T07:18:59.113Z,22.80
2022-08-16T07:20:03.991Z,22.83
2022-08-16T07:20:52.431Z,22.86
2022-08-16T07:21:59.337Z,22.92
2022-08-16T07:22:58.743Z,22.94
2022-08-16T07:23:58.020Z,22.99
2022-08-16T07:24:52.366Z,23.05
2022-08-16T07:25:51.343Z,23.09
2022-08-16T07:26:51.356Z,23.14
2022-08-16T07:27:51.332Z,23.20
2022-08-16T07:28:51.314Z,23.23
2022-08-16T07:29:51.303Z,23.23
2022-08-16T07:30:51.318Z,23.26
2022-08-16T07:31:51.283Z,23.26
2022-08-16T07:32:51.650Z,23.26
2022-08-16T07:33:54.905Z,23.31
2022-08-16T07:34:51.253Z,23.32
2022-08-16T07:35:51.266Z,23.38
2022-08-16T07:36:58.131Z,23.35
2022-08-16T07:37:52.237Z,23.38
2022-08-16T07:38:51.207Z,23.40
2022-08-16T07:39:51.209Z,23.45
2022-08-16T07:41:10.169Z,23.47
2022-08-16T07:41:52.166Z,23.50
2022-08-16T07:42:51.184Z,23.49
2022-08-16T07:43:51.213Z,23.53
2022-08-16T07:44:51.136Z,23.57
2022-08-16T07:45:52.901Z,23.62
2022-08-16T07:46:55.625Z,23.62
2022-08-16T07:47:52.140Z,23.68
2022-08-16T07:48:51.097Z,23.67
2022-08-16T07:49:57.831Z,23.72
2022-08-16T07:50:58.403Z,23.75
2022-08-16T07:51:55.935Z,23.75
2022-08-16T07:52:51.191Z,23.77
2022-08-16T07:54:02.682Z,23.85
2022-08-16T07:54:53.401Z,23.90
2022-08-16T07:55:51.021Z,23.94
2022-08-16T07:56:51.030Z,23.97
2022-08-16T07:58:00.985Z,24.04
2022-08-16T07:58:55.493Z,24.12
2022-08-16T07:59:52.094Z,24.12
2022-08-16T08:00:51.042Z,24.16
2022-08-16T08:01:53.113Z,24.23
2022-08-16T08:02:52.203Z,24.23
2022-08-16T08:03:50.931Z,24.23
2022-08-16T08:04:50.925Z,24.27
2022-08-16T08:05:50.904Z,24.31
2022-08-16T08:06:51.264Z,24.34
2022-08-16T08:07:51.462Z,24.39
2022-08-16T08:08:52.777Z,24.44
2022-08-16T08:09:51.864Z,24.45
2022-08-16T08:10:50.851Z,24.49
2022-08-16T08:12:01.025Z,24.49
2022-08-16T08:12:52.128Z,24.53
2022-08-16T08:13:50.945Z,24.57
2022-08-16T08:14:50.807Z,24.61
2022-08-16T08:15:52.503Z,24.68
2022-08-16T08:16:50.808Z,24.73
2022-08-16T08:17:50.773Z,24.80
2022-08-16T08:18:56.112Z,24.82
2022-08-16T08:19:53.264Z,24.88
2022-08-16T08:20:59.465Z,24.91
2022-08-16T08:22:01.380Z,24.92
2022-08-16T08:22:51.718Z,24.95
2022-08-16T08:23:50.709Z,25.00
2022-08-16T08:24:50.699Z,25.05
2022-08-16T08:25:53.723Z,25.02
2022-08-16T08:26:50.787Z,25.02
2022-08-16T08:27:50.678Z,25.06
2022-08-16T08:28:51.663Z,25.10
2022-08-16T08:30:09.082Z,25.12
2022-08-16T08:31:01.365Z,25.16
2022-08-16T08:31:51.640Z,25.22
2022-08-16T08:33:00.091Z,25.24
2022-08-16T08:33:51.836Z,25.28
2022-08-16T08:34:50.590Z,25.31
2022-08-16T08:35:50.570Z,25.35
2022-08-16T08:36:54.359Z,25.42
2022-08-16T08:37:55.375Z,25.46
2022-08-16T08:38:51.540Z,25.53
2022-08-16T08:39:55.343Z,25.50
2022-08-16T08:40:51.557Z,25.57
2022-08-16T08:41:51.245Z,25.61
2022-08-16T08:42:50.501Z,25.64
2022-08-16T08:43:51.543Z,25.67
2022-08-16T08:44:50.473Z,25.65
2022-08-16T08:45:52.788Z,25.65
2022-08-16T08:47:00.703Z,25.69
2022-08-16T08:47:54.322Z,25.77
2022-08-16T08:48:59.607Z,25.80
2022-08-16T08:49:55.867Z,25.83
2022-08-16T08:50:51.414Z,25.87
2022-08-16T08:51:50.395Z,25.91
2022-08-16T08:52:50.525Z,25.91
2022-08-16T08:53:58.021Z,25.91
2022-08-16T08:54:51.385Z,25.94
2022-08-16T08:55:59.176Z,25.99
2022-08-16T08:56:51.336Z,25.99
2022-08-16T08:57:50.327Z,26.09
2022-08-16T08:58:54.083Z,26.15
2022-08-16T08:59:51.328Z,26.15
2022-08-16T09:00:51.638Z,26.18
2022-08-16T09:01:56.204Z,26.22
2022-08-16T09:02:52.267Z,26.25
2022-08-16T09:03:50.310Z,26.24
2022-08-16T09:04:50.277Z,26.24
2022-08-16T09:05:51.647Z,26.25
2022-08-16T09:06:50.256Z,26.22
2022-08-16T09:08:00.452Z,26.28
2022-08-16T09:08:51.209Z,26.32
2022-08-16T09:09:50.211Z,26.37
2022-08-16T09:11:02.023Z,26.42
2022-08-16T09:11:53.506Z,26.52
2022-08-16T09:12:50.470Z,26.54
2022-08-16T09:13:50.151Z,26.59
2022-08-16T09:14:51.058Z,26.62
2022-08-16T09:15:50.122Z,26.67
2022-08-16T09:17:01.295Z,26.72
2022-08-16T09:17:53.530Z,26.74
2022-08-16T09:18:54.902Z,26.79
2022-08-16T09:19:55.177Z,26.76
2022-08-16T09:20:58.665Z,26.77
2022-08-16T09:21:56.029Z,26.79
2022-08-16T09:22:51.442Z,26.86
2022-08-16T09:23:50.035Z,26.91
2022-08-16T09:24:53.302Z,26.94
2022-08-16T09:25:50.036Z,26.99
2022-08-16T09:26:52.561Z,27.05
2022-08-16T09:27:57.913Z,27.09
2022-08-16T09:29:15.120Z,27.10
2022-08-16T09:29:59.982Z,27.16
2022-08-16T09:30:50.986Z,27.19
2022-08-16T09:31:53.455Z,27.14
2022-08-16T09:32:50.107Z,27.04
2022-08-16T09:33:52.101Z,27.05
2022-08-16T09:34:49.924Z,27.14
2022-08-16T09:35:53.887Z,27.23
2022-08-16T09:36:49.908Z,27.29
2022-08-16T09:38:00.815Z,27.36
2022-08-16T09:38:50.940Z,27.47
2022-08-16T09:39:50.540Z,27.50
2022-08-16T09:40:49.877Z,27.61
2022-08-16T09:41:53.855Z,27.70
2022-08-16T09:42:56.510Z,27.79
2022-08-16T09:43:59.283Z,27.89
2022-08-16T09:45:09.324Z,27.94
2022-08-16T09:45:50.811Z,27.96
2022-08-16T09:46:50.095Z,27.96
2022-08-16T09:47:56.922Z,28.07
2022-08-16T09:48:51.678Z,28.10
2022-08-16T09:49:51.231Z,28.21
2022-08-16T09:50:49.759Z,28.38
2022-08-16T09:51:49.753Z,28.47
2022-08-16T09:52:49.928Z,28.59
2022-08-16T09:53:53.958Z,28.66
2022-08-16T09:54:50.740Z,28.78
2022-08-16T09:55:50.107Z,28.95
2022-08-16T09:56:52.501Z,28.97
2022-08-16T09:57:53.070Z,29.08
2022-08-16T09:59:05.869Z,29.31
2022-08-16T09:59:56.387Z,29.52
2022-08-16T10:00:50.643Z,29.74
2022-08-16T10:01:49.904Z,29.87
2022-08-16T10:02:49.678Z,30.12
2022-08-16T10:04:02.385Z,30.33
2022-08-16T10:04:54.632Z,30.27
2022-08-16T10:05:49.591Z,30.43
2022-08-16T10:06:49.588Z,30.64
2022-08-16T10:07:49.890Z,30.81
2022-08-16T10:09:04.732Z,31.18
2022-08-16T10:09:55.150Z,31.13
2022-08-16T10:10:50.550Z,31.36
2022-08-16T10:11:50.451Z,31.48
2022-08-16T10:12:55.570Z,31.85
2022-08-16T10:13:50.519Z,31.85
2022-08-16T10:14:49.490Z,32.22
2022-08-16T10:15:55.427Z,32.33
2022-08-16T10:16:50.470Z,32.69
2022-08-16T10:17:59.967Z,33.11
2022-08-16T10:19:00.795Z,33.17
2022-08-16T10:19:50.444Z,33.03
2022-08-16T10:20:49.424Z,33.19
2022-08-16T10:21:56.618Z,33.61
2022-08-16T10:22:54.206Z,33.67
2022-08-16T10:23:50.394Z,33.57
2022-08-16T10:24:56.051Z,33.58
2022-08-16T10:27:21.692Z,33.01
2022-08-16T10:28:28.131Z,33.27
2022-08-16T10:29:01.556Z,33.82
2022-08-16T10:30:06.940Z,34.54
2022-08-16T10:31:03.479Z,34.56
2022-08-16T10:32:00.542Z,34.50
2022-08-16T10:33:00.536Z,34.83
2022-08-16T10:34:00.501Z,35.11
2022-08-16T10:35:00.483Z,35.06
2022-08-16T10:36:03.659Z,35.14
2022-08-16T10:37:00.473Z,34.94
2022-08-16T10:38:00.476Z,34.00
2022-08-16T10:39:00.444Z,33.36
2022-08-16T10:40:00.487Z,33.20
2022-08-16T10:41:00.437Z,33.43
2022-08-16T10:42:00.407Z,34.05
2022-08-16T10:43:00.544Z,34.23
2022-08-16T10:44:00.422Z,34.45
2022-08-16T10:45:00.387Z,34.66
2022-08-16T10:46:01.356Z,35.21
2022-08-16T10:47:00.366Z,34.96
2022-08-16T10:48:00.714Z,35.08
2022-08-16T10:49:00.882Z,35.36
2022-08-16T10:50:00.361Z,35.69
2022-08-16T10:51:00.325Z,36.07
2022-08-16T10:52:02.521Z,36.07
2022-08-16T10:53:05.766Z,36.65
2022-08-16T10:54:01.283Z,36.51
2022-08-16T10:55:43.747Z,36.17
2022-08-16T10:56:01.596Z,35.39
2022-08-16T10:57:00.499Z,34.88
2022-08-16T10:58:00.247Z,35.23
2022-08-16T11:00:01.463Z,35.37
2022-08-16T11:01:00.553Z,35.21
2022-08-16T11:03:01.596Z,33.76
2022-08-16T11:04:01.283Z,33.94
2022-08-16T11:05:09.057Z,34.26
2022-08-16T11:06:03.246Z,34.81
2022-08-16T11:07:08.193Z,35.50
2022-08-16T11:08:05.329Z,35.93
2022-08-16T11:10:21.264Z,36.14
2022-08-16T11:11:05.284Z,35.35
2022-08-16T11:12:13.892Z,35.10
2022-08-16T11:14:05.950Z,35.28
2022-08-16T11:15:17.230Z,35.79
2022-08-16T11:16:01.281Z,35.72
2022-08-16T11:17:02.015Z,35.58
2022-08-16T11:19:03.501Z,36.21
2022-08-16T11:20:40.907Z,36.65
2022-08-16T11:21:01.032Z,37.28
2022-08-16T11:22:39.444Z,37.59
2022-08-16T11:23:01.001Z,36.35
2022-08-16T11:24:00.198Z,34.80
2022-08-16T11:26:06.052Z,33.97
2022-08-16T11:26:10.408Z,33.17
2022-08-16T11:28:00.943Z,32.67
2022-08-16T11:29:15.405Z,31.95
2022-08-16T11:30:01.040Z,32.86
2022-08-16T11:30:59.913Z,33.65
2022-08-16T11:31:59.917Z,34.41
2022-08-16T11:32:59.886Z,34.94
2022-08-16T11:33:59.878Z,35.74
2022-08-16T11:35:13.458Z,35.97
2022-08-16T11:37:01.052Z,36.21
2022-08-16T11:38:47.456Z,35.85
2022-08-16T11:39:01.204Z,35.48
2022-08-16T11:40:00.082Z,34.63
2022-08-16T11:40:59.811Z,35.32
2022-08-16T11:41:59.801Z,35.73
2022-08-16T11:42:59.791Z,36.60
2022-08-16T11:43:59.780Z,36.83
2022-08-16T11:44:59.771Z,36.61
2022-08-16T11:46:01.360Z,36.76
2022-08-16T11:47:00.751Z,37.13
2022-08-16T11:47:59.743Z,37.70
2022-08-16T11:48:59.741Z,37.10
2022-08-16T11:49:59.714Z,36.12
2022-08-16T11:50:59.741Z,36.24
2022-08-16T11:51:59.696Z,35.54
2022-08-16T11:52:59.699Z,34.74
2022-08-16T11:53:59.679Z,34.02
2022-08-16T11:55:00.142Z,34.79
2022-08-16T11:55:59.754Z,36.00
2022-08-16T11:56:59.673Z,36.77
2022-08-16T11:57:59.636Z,37.24
2022-08-16T11:58:59.632Z,37.77
2022-08-16T11:59:59.639Z,37.92
2022-08-16T12:00:59.616Z,38.22
2022-08-16T12:02:31.385Z,38.73
2022-08-16T12:03:00.588Z,39.08
2022-08-16T12:04:00.041Z,39.36
2022-08-16T12:04:59.568Z,39.22
2022-08-16T12:05:59.561Z,38.66
2022-08-16T12:06:59.590Z,38.55
2022-08-16T12:07:59.541Z,38.92
2022-08-16T12:09:02.189Z,38.82
2022-08-16T12:09:59.519Z,38.17
2022-08-16T12:10:59.596Z,37.62
2022-08-16T12:12:03.116Z,38.15
2022-08-16T12:13:02.738Z,38.41
2022-08-16T12:13:59.491Z,38.42
2022-08-16T12:15:00.215Z,38.57
2022-08-16T12:15:59.470Z,38.75
2022-08-16T12:16:59.462Z,38.67
2022-08-16T12:17:59.473Z,37.46
2022-08-16T12:18:59.446Z,37.76
2022-08-16T12:19:59.459Z,38.05
2022-08-16T12:20:59.996Z,37.80
2022-08-16T12:21:59.659Z,38.04
2022-08-16T12:22:59.415Z,38.14
2022-08-16T12:23:59.416Z,37.85
2022-08-16T12:24:59.396Z,38.04
2022-08-16T12:25:59.407Z,36.97
2022-08-16T12:26:59.893Z,35.72
2022-08-16T12:27:59.363Z,35.07
2022-08-16T12:28:59.358Z,34.44
2022-08-16T12:29:59.338Z,33.70
2022-08-16T12:30:59.329Z,33.07
2022-08-16T12:32:26.769Z,32.55
2022-08-16T12:33:00.317Z,32.32
2022-08-16T12:33:59.301Z,32.39
2022-08-16T12:34:59.289Z,32.49
2022-08-16T12:35:59.281Z,32.54
2022-08-16T12:36:59.273Z,32.58
2022-08-16T12:37:59.289Z,33.19
2022-08-16T12:38:59.255Z,33.22
2022-08-16T12:39:59.295Z,32.96
2022-08-16T12:40:59.231Z,32.77
2022-08-16T12:41:59.222Z,32.52
2022-08-16T12:42:59.420Z,32.44
2022-08-16T12:44:01.292Z,32.29
2022-08-16T12:44:59.192Z,32.06
2022-08-16T12:45:59.217Z,31.91
2022-08-16T12:46:59.185Z,31.67
2022-08-16T12:48:29.826Z,31.40
2022-08-16T12:49:00.187Z,31.15
2022-08-16T12:49:59.134Z,30.83
2022-08-16T12:50:59.132Z,30.81
2022-08-16T12:52:01.223Z,30.80
2022-08-16T12:52:59.293Z,30.78
2022-08-16T12:53:59.097Z,30.74
2022-08-16T12:54:59.107Z,31.21
2022-08-16T12:55:59.067Z,32.06
2022-08-16T12:56:59.068Z,33.01
2022-08-16T12:58:00.468Z,34.04
2022-08-16T12:58:59.439Z,34.38
2022-08-16T12:59:59.068Z,33.73